Time;durP1;ratioP1;P1;durP2;ratioP2;P2;SDS_P1;SDS_P2;PMS_P1;PMS_P2;Temp;Humidity;BMP_temperature;BMP_pressure;BME280_temperature;BME280_humidity;BME280_pressure;Samples;Min_cycle;Max_cycle;Signal;HPM_P1;HPM_P2
2023/02/12 00:00:45;;;;;;;76.85;30.50;;;;;;;-2.78;100.00;98447.97;5076051;28;20038;-78
2023/02/12 00:03:10;;;;;;;116.05;39.85;;;;;;;-2.80;100.00;98455.81;5064878;28;20034;-77
2023/02/12 00:05:37;;;;;;;130.45;44.88;;;;;;;-2.89;100.00;98444.44;5071907;28;20032;-77
2023/02/12 00:08:03;;;;;;;108.35;43.08;;;;;;;-2.95;100.00;98449.63;5055723;28;20070;-77
2023/02/12 00:10:28;;;;;;;132.55;47.20;;;;;;;-2.94;100.00;98460.13;5055546;28;20059;-78
2023/02/12 00:12:54;;;;;;;123.40;44.78;;;;;;;-2.84;100.00;98471.50;5056026;28;20051;-77
2023/02/12 00:15:20;;;;;;;110.38;42.38;;;;;;;-2.97;100.00;98464.44;5058589;28;20038;-79
2023/02/12 00:17:45;;;;;;;118.90;43.35;;;;;;;-2.85;100.00;98470.63;5065323;28;20127;-77
2023/02/12 00:20:11;;;;;;;110.95;40.38;;;;;;;-2.99;100.00;98461.84;5060193;28;20115;-77
2023/02/12 00:22:37;;;;;;;114.57;42.70;;;;;;;-2.95;100.00;98466.19;5059567;28;20030;-78
2023/02/12 00:25:03;;;;;;;114.93;44.72;;;;;;;-3.00;100.00;98448.72;5059940;28;20028;-78
2023/02/12 00:27:31;;;;;;;110.95;42.60;;;;;;;-3.07;100.00;98455.66;5066627;28;20051;-77
2023/02/12 00:29:57;;;;;;;115.07;44.22;;;;;;;-3.05;100.00;98461.81;5059733;28;20515;-78
2023/02/12 00:32:22;;;;;;;121.25;44.78;;;;;;;-3.05;100.00;98476.63;5059985;28;20055;-78
2023/02/12 00:34:48;;;;;;;138.35;49.33;;;;;;;-3.16;100.00;98467.81;5078445;28;20032;-78
2023/02/12 00:37:14;;;;;;;128.25;51.20;;;;;;;-3.14;100.00;98477.44;5114916;28;20475;-78
2023/02/12 00:39:39;;;;;;;117.30;45.25;;;;;;;-3.25;100.00;98460.78;5070600;28;20020;-78
2023/02/12 00:42:05;;;;;;;103.75;42.67;;;;;;;-3.22;100.00;98468.66;5059454;28;20035;-78
2023/02/12 00:44:31;;;;;;;103.80;41.17;;;;;;;-3.20;100.00;98490.47;5077970;28;20700;-78
2023/02/12 00:46:56;;;;;;;96.13;38.08;;;;;;;-3.33;100.00;98475.56;5060784;28;20427;-78
2023/02/12 00:49:22;;;;;;;95.68;38.90;;;;;;;-3.18;100.00;98491.34;5069118;28;20024;-77
2023/02/12 00:51:48;;;;;;;96.85;37.20;;;;;;;-3.21;100.00;98491.34;5075750;28;20384;-77
2023/02/12 00:54:14;;;;;;;102.93;38.08;;;;;;;-3.26;100.00;98492.19;5059228;28;20027;-78
2023/02/12 00:56:39;;;;;;;107.93;40.80;;;;;;;-3.26;100.00;98486.94;5059145;28;20042;-78
2023/02/12 00:59:05;;;;;;;101.05;36.95;;;;;;;-3.21;100.00;98485.22;5059028;28;20028;-76
2023/02/12 01:01:30;;;;;;;99.25;37.35;;;;;;;-3.21;100.00;98480.00;5076008;28;20039;-77
2023/02/12 01:03:56;;;;;;;95.35;38.10;;;;;;;-3.18;100.00;98486.13;5076576;28;20024;-76
2023/02/12 01:06:21;;;;;;;97.32;39.03;;;;;;;-3.18;100.00;98480.91;5096001;28;20051;-78
2023/02/12 01:08:50;;;;;;;92.28;35.85;;;;;;;-3.04;100.00;98486.19;5095916;28;20467;-76
2023/02/12 01:11:15;;;;;;;83.97;35.58;;;;;;;-3.05;100.00;98482.75;5079087;28;20490;-78
2023/02/12 01:13:41;;;;;;;93.50;35.80;;;;;;;-2.98;100.00;98494.97;5095983;28;20055;-78
2023/02/12 01:16:20;;;;;;;92.82;35.42;;;;;;;-2.98;100.00;98468.81;5095904;28;20033;-77
2023/02/12 01:18:47;;;;;;;92.78;35.90;;;;;;;-2.71;100.00;98482.94;5069762;28;20126;-78
2023/02/12 01:21:15;;;;;;;106.25;39.25;;;;;;;-2.70;100.00;98479.41;5058762;28;20020;-78
2023/02/12 01:23:41;;;;;;;98.93;36.42;;;;;;;-2.55;100.00;98476.91;5058779;28;20028;-78
2023/02/12 01:26:09;;;;;;;99.78;39.22;;;;;;;-2.52;100.00;98479.53;5058310;28;20119;-77
2023/02/12 01:28:35;;;;;;;89.47;34.83;;;;;;;-2.61;100.00;98463.75;5066047;28;20060;-78
2023/02/12 01:31:03;;;;;;;91.20;37.42;;;;;;;-2.61;100.00;98467.25;5078457;28;20027;-79
2023/02/12 01:33:29;;;;;;;96.05;35.70;;;;;;;-2.48;100.00;98463.81;5089785;28;20070;-78
2023/02/12 01:35:55;;;;;;;95.70;38.03;;;;;;;-2.37;100.00;98477.81;5058404;28;20611;-78
2023/02/12 01:38:21;;;;;;;91.47;36.78;;;;;;;-2.51;100.00;98449.84;5075228;28;20020;-78
2023/02/12 01:40:46;;;;;;;97.95;36.75;;;;;;;-2.55;100.00;98448.94;5075319;28;20050;-78
2023/02/12 01:43:12;;;;;;;87.22;34.47;;;;;;;-2.53;100.00;98448.97;5095281;28;20027;-78
2023/02/12 01:45:44;;;;;;;89.60;35.00;;;;;;;-2.63;100.00;98442.81;5078465;28;20078;-78
2023/02/12 01:48:12;;;;;;;89.93;33.05;;;;;;;-2.51;100.00;98449.84;5075211;28;20020;-78
2023/02/12 01:50:38;;;;;;;84.75;32.67;;;;;;;-2.53;100.00;98448.97;5058400;28;20020;-77
2023/02/12 01:53:03;;;;;;;76.95;31.20;;;;;;;-2.65;100.00;98449.81;5066803;28;20026;-78
2023/02/12 01:55:29;;;;;;;70.70;30.95;;;;;;;-2.58;100.00;98442.84;5078331;28;20406;-77
2023/02/12 01:57:55;;;;;;;89.55;34.28;;;;;;;-2.63;100.00;98444.56;5077768;28;20097;-78
2023/02/12 02:00:22;;;;;;;90.80;31.33;;;;;;;-2.66;100.00;98460.25;5058000;28;20472;-78
2023/02/12 02:02:59;;;;;;;88.57;32.85;;;;;;;-2.76;100.00;98451.47;5072917;28;20021;-78
2023/02/12 02:05:49;;;;;;;86.57;30.88;;;;;;;-2.70;100.00;98453.25;5095005;28;20035;-78
2023/02/12 02:08:14;;;;;;;82.00;32.90;;;;;;;-2.85;100.00;98447.06;5094675;28;20020;-77
2023/02/12 02:10:40;;;;;;;80.68;31.45;;;;;;;-2.91;100.00;98438.31;5077957;28;20047;-78
2023/02/12 02:15:53;;;;;;;84.65;31.63;;;;;;;-2.99;100.00;98455.72;5077451;28;20096;-79
2023/02/12 02:18:26;;;;;;;84.55;33.95;;;;;;;-2.88;100.00;98464.50;5077429;28;20048;-78
2023/02/12 02:21:30;;;;;;;82.43;36.17;;;;;;;-2.92;100.00;98466.22;5094827;28;20023;-78
2023/02/12 02:24:11;;;;;;;87.00;32.33;;;;;;;-3.02;100.00;98461.81;5079432;28;20026;-78
2023/02/12 02:27:01;;;;;;;79.00;33.17;;;;;;;-3.11;100.00;98464.38;5086497;28;20032;-77
2023/02/12 02:29:36;;;;;;;82.63;31.90;;;;;;;-3.09;100.00;98469.59;5074344;28;20031;-78
2023/02/12 02:32:17;;;;;;;105.10;37.65;;;;;;;-3.17;100.00;98479.16;5081478;28;20406;-78
2023/02/12 02:35:00;;;;;;;90.57;34.28;;;;;;;-3.11;100.00;98473.97;5077441;28;20027;-77
2023/02/12 02:37:39;;;;;;;90.63;36.65;;;;;;;-3.18;100.00;98459.97;5076751;28;20055;-77
2023/02/12 02:40:18;;;;;;;103.28;40.05;;;;;;;-3.18;100.00;98480.91;5077153;28;20046;-77
2023/02/12 02:42:55;;;;;;;99.85;36.85;;;;;;;-3.10;100.00;98494.88;5094417;28;20046;-77
2023/02/12 02:45:31;;;;;;;85.10;37.35;;;;;;;-3.13;100.00;98497.47;5077063;28;20039;-77
2023/02/12 02:48:08;;;;;;;117.72;45.28;;;;;;;-3.11;100.00;98487.03;5077213;28;20055;-78
2023/02/12 02:50:37;;;;;;;126.82;46.13;;;;;;;-2.96;100.00;98503.72;5067245;28;20105;-77
2023/02/12 02:53:39;;;;;;;162.23;58.83;;;;;;;-2.87;100.00;98493.31;5077023;28;20467;-78
2023/02/12 02:56:06;;;;;;;114.53;41.35;;;;;;;-2.81;100.00;98482.88;5025115;28;20567;-78
2023/02/12 02:58:38;;;;;;;105.57;39.25;;;;;;;-2.63;100.00;98497.81;5056710;28;20504;-78
2023/02/12 03:01:12;;;;;;;102.43;38.72;;;;;;;-2.59;100.00;98490.84;5082147;28;20042;-78
2023/02/12 03:03:48;;;;;;;82.82;32.60;;;;;;;-2.55;100.00;98490.00;5065222;28;20031;-78
2023/02/12 03:06:33;;;;;;;83.95;33.92;;;;;;;-2.62;100.00;98483.84;5091450;28;20564;-78
2023/02/12 03:09:04;;;;;;;98.65;34.97;;;;;;;-2.69;100.00;98455.00;5087867;28;20026;-78
2023/02/12 03:11:32;;;;;;;78.68;32.13;;;;;;;-2.55;100.00;98477.75;5073670;28;20487;-79
2023/02/12 03:14:08;;;;;;;70.88;29.42;;;;;;;-2.50;100.00;98472.56;5088915;28;20047;-78
2023/02/12 03:16:58;;;;;;;77.35;29.88;;;;;;;-2.42;100.00;98481.28;5093594;28;20114;-79
2023/02/12 03:19:28;;;;;;;60.08;23.50;;;;;;;-2.46;100.00;98469.94;5109377;28;20043;-77
2023/02/12 03:22:00;;;;;;;52.88;23.33;;;;;;;-2.45;100.00;98468.19;5076290;28;20030;-78
2023/02/12 03:24:28;;;;;;;;;;;;;;;-2.43;100.00;98471.72;5083101;28;20066;-77
2023/02/12 03:27:03;;;;;;;57.67;22.92;;;;;;;-2.55;100.00;98463.81;5087719;28;20386;-78
2023/02/12 03:29:28;;;;;;;63.05;22.75;;;;;;;-2.54;100.00;98468.16;5093764;28;20032;-78
2023/02/12 03:32:15;;;;;;;54.95;23.45;;;;;;;-2.48;100.00;98481.28;5059546;28;20027;-78
2023/02/12 03:34:52;;;;;;;66.80;24.80;;;;;;;-2.39;100.00;98491.78;5092972;28;20062;-78
2023/02/12 03:37:24;;;;;;;58.75;24.23;;;;;;;-2.38;100.00;98494.44;5068270;28;20028;-80
2023/02/12 03:39:56;;;;;;;60.83;24.27;;;;;;;-2.34;100.00;98469.13;5067871;28;20024;-82
2023/02/12 03:42:49;;;;;;;61.42;24.52;;;;;;;-2.24;100.00;98477.00;5072173;28;20036;-78
2023/02/12 03:45:42;;;;;;;61.05;24.40;;;;;;;-2.32;100.00;98478.72;5081194;28;20084;-80
2023/02/12 03:48:29;;;;;;;60.30;24.52;;;;;;;-2.21;100.00;98497.09;5101081;28;20026;-78
2023/02/12 03:51:44;;;;;;;63.67;26.23;;;;;;;-2.24;100.00;98486.59;5106937;28;20101;-79
2023/02/12 03:54:11;;;;;;;68.55;29.17;;;;;;;-2.18;100.00;98502.34;5065877;28;20067;-78
2023/02/12 03:56:44;;;;;;;83.68;31.13;;;;;;;-2.09;100.00;98491.88;5072765;28;20513;-78
2023/02/12 03:59:14;;;;;;;79.55;31.38;;;;;;;-2.04;100.00;98484.94;5074441;28;20028;-79
2023/02/12 04:01:39;;;;;;;81.35;32.15;;;;;;;-1.97;100.00;98481.44;5074558;28;20031;-79
2023/02/12 04:04:07;;;;;;;175.40;48.20;;;;;;;-1.78;100.00;98493.72;5055879;28;20035;-79
2023/02/12 04:06:32;;;;;;;223.38;58.33;;;;;;;-1.79;100.00;98478.88;5056168;28;20085;-79
2023/02/12 04:09:03;;;;;;;94.78;38.53;;;;;;;-1.89;100.00;98471.84;5072487;28;20035;-80
2023/02/12 04:11:48;;;;;;;102.85;38.95;;;;;;;-1.89;100.00;98479.72;5062142;28;20103;-78
2023/02/12 04:14:36;;;;;;;107.35;41.92;;;;;;;-1.77;100.00;98485.00;5091865;28;20046;-78
2023/02/12 04:17:04;;;;;;;127.43;44.53;;;;;;;-1.71;100.00;98490.25;5110674;28;20051;-78
2023/02/12 04:19:39;;;;;;;113.75;41.80;;;;;;;-1.75;100.00;98478.00;5111007;28;20024;-79
2023/02/12 04:22:14;;;;;;;127.40;45.70;;;;;;;-1.75;100.00;98472.75;5075649;28;20023;-79
2023/02/12 04:24:49;;;;;;;103.78;40.65;;;;;;;-1.76;100.00;98471.03;5092721;28;20026;-79
2023/02/12 04:27:51;;;;;;;94.30;37.10;;;;;;;-1.57;100.00;98471.03;5064167;28;20016;-78
2023/02/12 04:30:22;;;;;;;86.68;33.55;;;;;;;-1.54;100.00;98460.53;5020275;28;20536;-78
2023/02/12 04:32:59;;;;;;;87.37;34.17;;;;;;;-1.63;100.00;98465.78;5072509;28;20032;-78
2023/02/12 04:35:48;;;;;;;96.05;37.17;;;;;;;-1.61;100.00;98472.78;5055666;28;20293;-78
2023/02/12 04:38:42;;;;;;;101.38;37.10;;;;;;;-1.66;100.00;98464.88;5023894;28;20051;-78
2023/02/12 04:41:08;;;;;;;91.25;37.65;;;;;;;-1.71;100.00;98463.13;5069044;28;20521;-78
2023/02/12 04:43:36;;;;;;;97.05;40.38;;;;;;;-1.74;100.00;98465.75;5075709;28;20020;-78
2023/02/12 04:46:06;;;;;;;104.45;42.80;;;;;;;-1.69;100.00;98472.75;5068662;28;20128;-77
2023/02/12 04:48:33;;;;;;;128.88;48.38;;;;;;;-1.67;100.00;98486.75;5075306;28;20028;-78
2023/02/12 04:50:59;;;;;;;119.70;45.80;;;;;;;-1.68;100.00;98498.09;5076004;28;20463;-77
2023/02/12 04:53:25;;;;;;;116.80;45.60;;;;;;;-1.68;100.00;98500.72;5075531;28;20019;-78
2023/02/12 04:55:50;;;;;;;125.35;46.95;;;;;;;-1.76;100.00;98485.88;5078267;28;20414;-77
2023/02/12 04:58:16;;;;;;;114.82;46.40;;;;;;;-1.55;100.00;98511.25;5072118;28;20030;-77
2023/02/12 05:00:42;;;;;;;104.43;42.63;;;;;;;-1.55;100.00;98506.88;5057112;28;20032;-76
2023/02/12 05:03:07;;;;;;;105.22;40.92;;;;;;;-1.45;100.00;98513.00;5077397;28;20028;-79
2023/02/12 05:05:33;;;;;;;118.82;42.38;;;;;;;-1.57;100.00;98498.13;5078964;28;20384;-79
2023/02/12 05:07:59;;;;;;;118.70;40.67;;;;;;;-1.53;100.00;98502.50;5079081;28;20039;-78
2023/02/12 05:10:25;;;;;;;92.97;37.78;;;;;;;-1.73;100.00;98504.22;5075675;28;20032;-78
2023/02/12 05:12:51;;;;;;;95.78;36.03;;;;;;;-1.80;100.00;98503.34;5075838;28;20020;-78
2023/02/12 05:15:17;;;;;;;84.80;34.38;;;;;;;-1.76;100.00;98510.34;5060677;28;20093;-77
2023/02/12 05:17:44;;;;;;;84.78;33.10;;;;;;;-1.76;100.00;98497.22;5064995;28;20048;-77
2023/02/12 05:20:10;;;;;;;82.18;33.90;;;;;;;-1.63;100.00;98512.97;5075059;28;20398;-77
2023/02/12 05:22:36;;;;;;;71.28;32.38;;;;;;;-1.54;100.00;98523.50;5084298;28;20024;-78
2023/02/12 05:25:02;;;;;;;82.07;34.35;;;;;;;-1.54;100.00;98519.13;5090207;28;20394;-77
2023/02/12 05:27:27;;;;;;;74.78;31.55;;;;;;;-1.54;100.00;98507.75;5092661;28;20024;-77
2023/02/12 05:29:53;;;;;;;85.20;35.42;;;;;;;-1.54;100.00;98518.25;5080592;28;20106;-77
2023/02/12 05:32:18;;;;;;;93.07;35.70;;;;;;;-1.63;100.00;98519.97;5086758;28;20039;-77
2023/02/12 05:34:44;;;;;;;89.40;36.80;;;;;;;-1.70;100.00;98510.34;5058529;28;20035;-77
2023/02/12 05:37:09;;;;;;;89.70;37.47;;;;;;;-1.63;100.00;98539.22;5058562;28;20024;-77
2023/02/12 05:39:35;;;;;;;90.78;37.10;;;;;;;-1.50;100.00;98538.34;5075023;28;20020;-78
2023/02/12 05:42:00;;;;;;;86.65;36.75;;;;;;;-1.51;100.00;98519.13;5058670;28;20040;-78
2023/02/12 05:44:26;;;;;;;95.70;39.83;;;;;;;-1.54;100.00;98528.72;5075014;28;20028;-78
2023/02/12 05:46:51;;;;;;;92.03;38.67;;;;;;;-1.39;100.00;98539.25;5079756;28;20027;-77
2023/02/12 05:49:17;;;;;;;112.20;45.40;;;;;;;-1.38;100.00;98535.72;5095283;28;20027;-77
2023/02/12 05:51:42;;;;;;;130.13;48.63;;;;;;;-1.25;100.00;98534.88;5066895;28;20032;-78
2023/02/12 05:54:09;;;;;;;116.05;44.85;;;;;;;-1.23;100.00;98541.84;5058013;28;20027;-78
2023/02/12 05:56:37;;;;;;;145.20;52.42;;;;;;;-1.29;100.00;98543.63;5064765;28;20024;-78
2023/02/12 05:59:07;;;;;;;114.07;43.15;;;;;;;-1.24;100.00;98532.25;5072238;28;20459;-77
2023/02/12 06:01:35;;;;;;;123.07;48.53;;;;;;;-1.12;100.00;98539.25;5078041;28;20600;-79
2023/02/12 06:04:03;;;;;;;165.85;58.83;;;;;;;-1.11;100.00;98538.38;5095236;28;20043;-78
2023/02/12 06:06:30;;;;;;;158.85;59.42;;;;;;;-1.27;100.00;98518.25;5060597;28;20044;-78
2023/02/12 06:08:55;;;;;;;152.18;58.65;;;;;;;-1.11;100.00;98541.00;5074744;28;20038;-78
2023/02/12 06:11:21;;;;;;;158.07;59.53;;;;;;;-1.27;100.00;98507.75;5082443;28;20032;-77
2023/02/12 06:13:47;;;;;;;142.82;56.45;;;;;;;-1.07;100.00;98529.63;5060426;28;20403;-78
2023/02/12 06:16:21;;;;;;;150.93;59.40;;;;;;;-1.13;100.00;98520.00;5069701;28;20028;-78
2023/02/12 06:18:47;;;;;;;150.93;57.47;;;;;;;-0.97;100.00;98549.75;5070618;28;20036;-78
2023/02/12 06:21:14;;;;;;;139.07;54.13;;;;;;;-0.95;100.00;98565.50;5077681;28;20032;-78
2023/02/12 06:23:42;;;;;;;142.18;56.22;;;;;;;-0.95;100.00;98558.47;5069453;28;20027;-78
2023/02/12 06:26:08;;;;;;;148.35;58.50;;;;;;;-0.97;100.00;98538.34;5078345;28;20135;-78
2023/02/12 06:28:33;;;;;;;178.50;64.93;;;;;;;-0.97;100.00;98555.00;5068356;28;20583;-79
2023/02/12 06:30:59;;;;;;;139.70;53.50;;;;;;;-0.97;100.00;98565.50;5080107;28;20399;-78
2023/02/12 06:33:25;;;;;;;123.38;49.08;;;;;;;-1.01;100.00;98578.59;5076885;28;20042;-80
2023/02/12 06:35:50;;;;;;;126.35;49.35;;;;;;;-1.10;100.00;98569.00;5068348;28;20046;-79
2023/02/12 06:38:16;;;;;;;116.03;48.00;;;;;;;-0.96;100.00;98567.25;5094631;28;20027;-79
2023/02/12 06:40:41;;;;;;;117.35;49.20;;;;;;;-0.98;100.00;98560.22;5077128;28;20065;-77
2023/02/12 06:43:07;;;;;;;111.13;45.70;;;;;;;-1.06;100.00;98573.38;5077523;28;20188;-80
2023/02/12 06:45:33;;;;;;;117.35;47.35;;;;;;;-0.82;100.00;98570.75;5069419;28;20484;-78
2023/02/12 06:47:58;;;;;;;133.45;51.33;;;;;;;-0.74;100.00;98553.22;5082025;28;20541;-77
2023/02/12 06:50:24;;;;;;;136.68;52.05;;;;;;;-0.62;100.00;98549.72;5068345;28;20505;-78
2023/02/12 06:52:50;;;;;;;136.70;53.00;;;;;;;-0.61;100.00;98552.31;5089882;28;20487;-80
2023/02/12 06:55:15;;;;;;;132.13;52.88;;;;;;;-0.42;100.00;98560.16;5087221;28;20097;-77
2023/02/12 06:57:41;;;;;;;145.27;59.60;;;;;;;-0.31;100.00;98561.03;5082437;28;20488;-78
2023/02/12 07:00:08;;;;;;;141.98;54.15;;;;;;;-0.42;100.00;98547.03;5068254;28;20031;-73
2023/02/12 07:02:33;;;;;;;125.28;50.17;;;;;;;-0.31;100.00;98543.50;5067042;28;20024;-81
2023/02/12 07:04:59;;;;;;;116.50;49.38;;;;;;;-0.36;100.00;98550.50;5056802;28;20039;-79
2023/02/12 07:07:24;;;;;;;114.78;48.80;;;;;;;-0.13;100.00;98553.06;5064490;28;20027;-78
2023/02/12 07:09:50;;;;;;;135.30;55.67;;;;;;;0.05;100.00;98545.13;5068016;28;20463;-75
2023/02/12 07:12:15;;;;;;;132.50;58.00;;;;;;;0.30;100.00;98557.28;5068344;28;20114;-74
2023/02/12 07:14:41;;;;;;;106.60;43.58;;;;;;;0.35;100.00;98530.91;5072982;28;20019;-74
2023/02/12 07:17:08;;;;;;;111.85;46.13;;;;;;;0.57;100.00;98547.44;5087941;28;20054;-79
2023/02/12 07:19:34;;;;;;;120.75;45.97;;;;;;;0.59;100.00;98550.94;5063858;28;20016;-79
2023/02/12 07:22:00;;;;;;;111.85;45.75;;;;;;;0.59;100.00;98550.94;5070379;28;20023;-79
2023/02/12 07:24:25;;;;;;;98.25;43.13;;;;;;;0.67;100.00;98535.97;5065356;28;20024;-81
2023/02/12 07:26:51;;;;;;;107.28;46.20;;;;;;;0.72;100.00;98539.44;5072573;28;20032;-82
2023/02/12 07:29:16;;;;;;;129.40;54.53;;;;;;;0.85;100.00;98542.00;5079322;28;20024;-80
2023/02/12 07:31:42;;;;;;;119.72;52.03;;;;;;;0.88;100.00;98535.81;5071154;28;20483;-73
2023/02/12 07:34:09;;;;;;;111.20;51.80;;;;;;;1.04;100.00;98534.81;5070632;28;20028;-81
2023/02/12 07:36:34;;;;;;;92.10;40.40;;;;;;;1.10;100.00;98526.84;5073554;28;20547;-79
2023/02/12 07:39:00;;;;;;;86.63;36.25;;;;;;;0.91;100.00;98527.91;5070266;28;20181;-80
2023/02/12 07:41:27;;;;;;;79.55;36.63;;;;;;;1.02;100.00;98542.72;5064035;28;20027;-84
2023/02/12 07:43:57;;;;;;;75.25;32.60;;;;;;;1.30;100.00;98535.44;5074947;28;20031;-84
2023/02/12 07:46:31;;;;;;;74.13;30.45;;;;;;;1.29;100.00;98525.81;5062218;28;20024;-80
2023/02/12 07:48:58;;;;;;;61.03;26.17;;;;;;;1.57;100.00;98543.06;5072320;28;20088;-75
2023/02/12 07:51:25;;;;;;;72.82;27.95;;;;;;;1.68;99.72;98534.19;5079707;28;20087;-73
2023/02/12 07:53:50;;;;;;;69.97;28.83;;;;;;;1.88;98.61;98521.63;5071701;28;20031;-75
2023/02/12 07:56:21;;;;;;;65.97;30.10;;;;;;;2.07;96.67;98513.47;5067570;28;20156;-75
2023/02/12 07:58:48;;;;;;;77.32;34.80;;;;;;;2.31;95.14;98528.09;5072569;28;20521;-75
2023/02/12 08:01:30;;;;;;;77.18;33.75;;;;;;;2.19;93.98;98507.16;5061290;28;20040;-75
2023/02/12 08:04:04;;;;;;;84.53;34.25;;;;;;;2.68;88.63;98508.19;5062065;28;20019;-74
2023/02/12 08:06:32;;;;;;;82.57;35.08;;;;;;;2.88;84.16;98505.25;5066675;28;20028;-74
2023/02/12 08:08:59;;;;;;;82.88;33.60;;;;;;;2.92;82.03;98495.50;5072599;28;20118;-78
2023/02/12 08:11:26;;;;;;;94.95;38.78;;;;;;;3.43;80.10;98499.00;5064633;28;20028;-78
2023/02/12 08:13:52;;;;;;;88.28;34.63;;;;;;;3.43;77.60;98489.31;5062091;28;20038;-74
2023/02/12 08:16:20;;;;;;;105.32;45.95;;;;;;;3.50;76.81;98485.66;5066287;28;20023;-78
2023/02/12 08:18:46;;;;;;;105.32;43.95;;;;;;;3.39;75.70;98482.31;5065766;28;20050;-80
2023/02/12 08:21:17;;;;;;;95.63;42.78;;;;;;;3.24;76.49;98487.88;5071143;28;20047;-77
2023/02/12 08:23:42;;;;;;;84.88;37.78;;;;;;;3.12;77.41;98473.13;5065108;28;20077;-73
2023/02/12 08:26:20;;;;;;;154.15;58.03;;;;;;;3.26;84.03;98494.03;5082858;28;20108;-74
2023/02/12 08:28:52;;;;;;;108.32;45.92;;;;;;;3.56;82.41;98500.53;5065759;28;20035;-74
2023/02/12 08:31:24;;;;;;;88.82;37.83;;;;;;;3.47;83.42;98472.50;5054859;28;20411;-73
2023/02/12 08:33:50;;;;;;;116.78;50.50;;;;;;;3.52;79.89;98469.75;5076825;28;20103;-73
2023/02/12 08:36:19;;;;;;;130.13;56.30;;;;;;;3.54;78.54;98489.97;5096699;28;20474;-74
2023/02/12 08:38:45;;;;;;;155.10;68.10;;;;;;;3.81;80.25;98505.28;5093972;28;20023;-80
2023/02/12 08:41:16;;;;;;;138.00;57.40;;;;;;;3.98;78.28;98525.25;5067870;28;20023;-77
2023/02/12 08:43:42;;;;;;;249.80;107.40;;;;;;;4.12;86.78;98547.06;5083319;28;20030;-77
2023/02/12 08:46:12;;;;;;;273.90;128.82;;;;;;;4.47;81.79;98538.34;5062070;28;20032;-78
2023/02/12 08:48:38;;;;;;;245.35;117.15;;;;;;;5.04;76.92;98536.16;5077877;28;20036;-78
2023/02/12 08:51:13;;;;;;;189.13;86.60;;;;;;;5.51;71.68;98525.22;5084629;28;20059;-79
2023/02/12 08:53:41;;;;;;;126.88;57.80;;;;;;;5.86;65.50;98519.88;5084340;28;20024;-77
2023/02/12 08:56:08;;;;;;;203.70;90.97;;;;;;;6.24;64.56;98517.91;5083221;28;20411;-77
2023/02/12 08:58:34;;;;;;;199.88;93.60;;;;;;;6.59;63.10;98503.56;5077364;28;20027;-78
2023/02/12 09:01:00;;;;;;;178.32;79.35;;;;;;;6.96;62.15;98509.47;5070676;28;20490;-78
2023/02/12 09:03:26;;;;;;;170.32;74.10;;;;;;;7.04;59.68;98496.81;5067752;28;20498;-77
2023/02/12 09:05:52;;;;;;;165.57;74.13;;;;;;;7.06;58.00;98493.16;5089176;28;20020;-77
2023/02/12 09:08:17;;;;;;;154.27;72.88;;;;;;;6.98;58.90;98492.53;5070463;28;20114;-78
2023/02/12 09:10:44;;;;;;;155.23;67.70;;;;;;;6.86;58.84;98490.25;5065380;28;20110;-78
2023/02/12 09:13:10;;;;;;;155.27;69.65;;;;;;;6.78;58.52;98494.97;5058840;28;20517;-77
2023/02/12 09:15:43;;;;;;;132.43;62.05;;;;;;;6.52;62.80;98514.38;5088987;28;20107;-76
2023/02/12 09:18:10;;;;;;;117.85;52.50;;;;;;;6.34;63.97;98514.06;5060182;28;20044;-77
2023/02/12 09:20:43;;;;;;;147.00;60.70;;;;;;;6.19;65.74;98520.69;5064622;28;20111;-78
2023/02/12 09:23:12;;;;;;;126.35;54.72;;;;;;;5.77;64.05;98512.13;5092989;28;20542;-77
2023/02/12 09:25:40;;;;;;;95.05;43.45;;;;;;;5.67;64.35;98500.00;5092334;28;20394;-76
2023/02/12 09:28:05;;;;;;;148.68;65.35;;;;;;;5.86;67.31;98521.66;5084861;28;20136;-78
2023/02/12 09:30:31;;;;;;;152.20;62.95;;;;;;;6.05;66.04;98514.03;5060914;28;20487;-76
2023/02/12 09:32:56;;;;;;;148.52;62.35;;;;;;;6.29;67.03;98521.31;5089455;28;20020;-77
2023/02/12 09:35:22;;;;;;;135.07;58.03;;;;;;;6.35;67.37;98540.59;5089195;28;20380;-77
2023/02/12 09:37:48;;;;;;;126.90;54.67;;;;;;;5.95;66.95;98521.38;5074916;28;20059;-79
2023/02/12 09:40:24;;;;;;;128.98;56.42;;;;;;;5.97;67.37;98531.06;5082017;28;20508;-77
2023/02/12 09:43:02;;;;;;;137.95;62.10;;;;;;;6.11;65.94;98537.78;5092314;28;20038;-77
2023/02/12 09:45:34;;;;;;;134.27;60.15;;;;;;;5.95;68.78;98545.28;5066895;28;20063;-76
2023/02/12 09:48:36;;;;;;;116.13;53.35;;;;;;;5.88;69.66;98549.88;5063863;28;20030;-76
2023/02/12 09:51:06;;;;;;;114.05;46.47;;;;;;;5.76;70.97;98550.19;5070243;28;20036;-77
2023/02/12 09:53:34;;;;;;;93.25;42.20;;;;;;;5.57;71.40;98551.56;5081330;28;20055;-77
2023/02/12 09:55:59;;;;;;;70.90;33.72;;;;;;;5.44;72.92;98558.13;5066319;28;20024;-79
2023/02/12 09:58:41;;;;;;;70.60;31.38;;;;;;;5.43;75.82;98564.34;5087692;28;20031;-78
2023/02/12 10:01:15;;;;;;;70.28;31.38;;;;;;;5.34;75.80;98560.16;5061341;28;20036;-78
2023/02/12 10:03:41;;;;;;;82.53;35.25;;;;;;;5.45;76.86;98571.34;5082673;28;20144;-79
2023/02/12 10:06:14;;;;;;;78.68;35.60;;;;;;;5.66;77.11;98577.88;5063556;28;20070;-73
2023/02/12 10:08:59;;;;;;;88.57;38.45;;;;;;;5.72;74.71;98583.03;5054831;28;20032;-74
2023/02/12 10:11:52;;;;;;;90.15;41.13;;;;;;;5.65;73.97;98576.16;5089998;28;20043;-82
2023/02/12 10:14:24;;;;;;;85.22;37.90;;;;;;;5.67;74.85;98586.72;5071555;28;20495;-80
2023/02/12 10:17:11;;;;;;;76.23;32.00;;;;;;;5.83;76.10;98594.25;5091509;28;20039;-82
2023/02/12 10:19:51;;;;;;;76.90;35.75;;;;;;;5.59;74.22;98576.31;5082129;28;20115;-80
2023/02/12 10:22:43;;;;;;;69.05;27.73;;;;;;;5.62;75.69;98584.19;5079065;28;20051;-80
2023/02/12 10:25:30;;;;;;;76.13;32.50;;;;;;;5.78;73.97;98585.53;5056042;28;20515;-81
2023/02/12 10:28:00;;;;;;;71.70;32.58;;;;;;;5.63;73.54;98571.81;5091332;28;20262;-79
2023/02/12 10:30:39;;;;;;;67.82;32.80;;;;;;;5.96;77.07;98598.38;5091063;28;20051;-81
2023/02/12 10:33:44;;;;;;;68.47;31.98;;;;;;;6.12;72.02;98590.00;5094600;28;20031;-80
2023/02/12 10:36:42;;;;;;;73.30;32.65;;;;;;;6.20;72.01;98585.31;5028706;28;20128;-82
2023/02/12 10:39:13;;;;;;;86.45;34.72;;;;;;;6.29;69.71;98575.31;5041841;28;20043;-82
2023/02/12 10:42:08;;;;;;;101.65;39.05;;;;;;;6.34;68.70;98572.50;5056060;28;20117;-73
2023/02/12 10:44:34;;;;;;;94.95;38.65;;;;;;;6.33;69.18;98576.09;5095999;28;20470;-77
2023/02/12 10:47:00;;;;;;;102.18;42.38;;;;;;;6.49;70.63;98580.06;5074352;28;20054;-76
2023/02/12 10:49:25;;;;;;;103.97;44.22;;;;;;;6.74;68.58;98578.41;5065439;28;20741;-75
2023/02/12 10:52:02;;;;;;;84.25;38.83;;;;;;;7.28;65.52;98581.16;5089762;28;20036;-78
2023/02/12 10:54:41;;;;;;;93.35;38.95;;;;;;;7.13;64.98;98580.75;5063525;28;20023;-76
2023/02/12 10:57:20;;;;;;;95.05;39.92;;;;;;;7.51;64.28;98577.72;5094031;28;20102;-77
2023/02/12 10:59:47;;;;;;;127.97;54.08;;;;;;;7.80;62.37;98577.63;5076739;28;20048;-75
2023/02/12 11:02:26;;;;;;;131.95;56.15;;;;;;;7.88;61.71;98578.19;5093860;28;20045;-76
2023/02/12 11:04:53;;;;;;;84.80;39.13;;;;;;;8.03;61.27;98568.78;5059764;28;20020;-75
2023/02/12 11:07:19;;;;;;;84.72;37.80;;;;;;;8.11;61.13;98564.09;5073660;28;20105;-74
2023/02/12 11:09:46;;;;;;;68.47;32.13;;;;;;;7.80;60.50;98553.63;5073347;28;20024;-80
2023/02/12 11:12:23;;;;;;;74.13;29.85;;;;;;;7.50;63.87;98568.00;5073214;28;20020;-73
2023/02/12 11:14:54;;;;;;;60.08;29.30;;;;;;;7.68;63.17;98580.69;5056450;28;20024;-73
2023/02/12 11:17:35;;;;;;;70.35;29.25;;;;;;;8.15;61.20;98581.72;5073321;28;20164;-73
2023/02/12 11:20:17;;;;;;;58.83;26.58;;;;;;;8.37;61.23;98573.81;5057386;28;20035;-73
2023/02/12 11:22:54;;;;;;;82.53;37.83;;;;;;;8.73;60.43;98584.94;5083443;28;20447;-73
2023/02/12 11:25:22;;;;;;;63.95;25.40;;;;;;;9.02;59.56;98571.31;5091338;28;20060;-73
2023/02/12 11:28:10;;;;;;;37.22;16.42;;;;;;;8.86;58.74;98563.03;5056355;28;20019;-73
2023/02/12 11:30:57;;;;;;;42.00;15.13;;;;;;;8.96;58.37;98566.22;5073183;28;20031;-73